Hazel, Kentucky
Current Conditions -  °F | °C
As of 10:15 AM on Monday 24 Nov 2014 (Local Time) from KCEY Reporting Station
Broken Clouds Broken Clouds  
Wind Chill: 40°   Ceiling: 3100
Heat Index: 46°   Visibility: 10mi
Dew Point: 34°   Wind: 15mph
Humidity: 62%   Direction: 260°W
Pressure: 29.77"   Gusts: 24mph
Location:  36.5°N, 88.33°W
Report Text: KCEY 241615Z AUTO 26013G21KT 10SM BKN031 08/01 A2977 RMK AO1
Loading
Personal Weather Stations






























Interactive Weather Map New forecast layout! Learn more

10-Day Weather Forecast

Advertisements
Track Severe Weather on mobile